sensor_id;sensor_type;location;lat;lon;timestamp;P1;durP1;ratioP1;P2;durP2;ratioP2
20497;SDS011;10407;53.238;10.448;2023-02-28T00:01:26;78.87;;;9.13;;
20497;SDS011;10407;53.238;10.448;2023-02-28T00:03:54;77.90;;;8.30;;
20497;SDS011;10407;53.238;10.448;2023-02-28T00:06:21;80.20;;;8.80;;
20497;SDS011;10407;53.238;10.448;2023-02-28T00:08:50;77.20;;;9.07;;
20497;SDS011;10407;53.238;10.448;2023-02-28T00:11:17;79.80;;;9.63;;
20497;SDS011;10407;53.238;10.448;2023-02-28T00:13:46;78.60;;;8.60;;
20497;SDS011;10407;53.238;10.448;2023-02-28T00:16:16;76.83;;;8.67;;
20497;SDS011;10407;53.238;10.448;2023-02-28T00:18:45;78.93;;;8.10;;
20497;SDS011;10407;53.238;10.448;2023-02-28T00:21:16;79.53;;;8.37;;
20497;SDS011;10407;53.238;10.448;2023-02-28T00:23:44;76.40;;;7.60;;
20497;SDS011;10407;53.238;10.448;2023-02-28T00:26:13;77.87;;;9.40;;
20497;SDS011;10407;53.238;10.448;2023-02-28T00:28:40;80.80;;;7.70;;
20497;SDS011;10407;53.238;10.448;2023-02-28T00:31:11;78.47;;;8.67;;
20497;SDS011;10407;53.238;10.448;2023-02-28T00:33:38;76.60;;;8.17;;
20497;SDS011;10407;53.238;10.448;2023-02-28T00:36:07;77.40;;;8.53;;
20497;SDS011;10407;53.238;10.448;2023-02-28T00:38:37;79.87;;;8.30;;
20497;SDS011;10407;53.238;10.448;2023-02-28T00:41:06;76.60;;;9.03;;
20497;SDS011;10407;53.238;10.448;2023-02-28T00:43:34;78.50;;;7.33;;
20497;SDS011;10407;53.238;10.448;2023-02-28T00:46:03;76.70;;;8.60;;
20497;SDS011;10407;53.238;10.448;2023-02-28T00:48:32;78.60;;;8.37;;
20497;SDS011;10407;53.238;10.448;2023-02-28T00:50:59;78.23;;;8.80;;
20497;SDS011;10407;53.238;10.448;2023-02-28T00:53:28;76.00;;;8.33;;
20497;SDS011;10407;53.238;10.448;2023-02-28T00:55:55;78.40;;;8.17;;
20497;SDS011;10407;53.238;10.448;2023-02-28T00:58:24;76.60;;;7.97;;
20497;SDS011;10407;53.238;10.448;2023-02-28T01:00:52;77.03;;;8.73;;
20497;SDS011;10407;53.238;10.448;2023-02-28T01:03:20;78.27;;;9.27;;
20497;SDS011;10407;53.238;10.448;2023-02-28T01:05:48;77.00;;;8.60;;
20497;SDS011;10407;53.238;10.448;2023-02-28T01:08:16;76.87;;;8.67;;
20497;SDS011;10407;53.238;10.448;2023-02-28T01:10:44;77.20;;;9.23;;
20497;SDS011;10407;53.238;10.448;2023-02-28T01:13:12;77.47;;;8.73;;
20497;SDS011;10407;53.238;10.448;2023-02-28T01:15:40;76.40;;;7.37;;
20497;SDS011;10407;53.238;10.448;2023-02-28T01:18:10;77.37;;;8.17;;
20497;SDS011;10407;53.238;10.448;2023-02-28T01:20:38;77.87;;;9.70;;
20497;SDS011;10407;53.238;10.448;2023-02-28T01:23:05;77.47;;;9.00;;
20497;SDS011;10407;53.238;10.448;2023-02-28T01:25:36;76.97;;;8.20;;
20497;SDS011;10407;53.238;10.448;2023-02-28T01:28:04;79.40;;;8.37;;
20497;SDS011;10407;53.238;10.448;2023-02-28T01:30:32;77.80;;;8.60;;
20497;SDS011;10407;53.238;10.448;2023-02-28T01:32:59;74.27;;;7.67;;
20497;SDS011;10407;53.238;10.448;2023-02-28T01:35:27;75.27;;;7.23;;
20497;SDS011;10407;53.238;10.448;2023-02-28T01:37:55;75.10;;;8.50;;
20497;SDS011;10407;53.238;10.448;2023-02-28T01:40:22;77.50;;;8.13;;
20497;SDS011;10407;53.238;10.448;2023-02-28T01:42:50;75.47;;;8.07;;
20497;SDS011;10407;53.238;10.448;2023-02-28T01:45:25;77.27;;;7.80;;
20497;SDS011;10407;53.238;10.448;2023-02-28T01:47:55;78.50;;;8.13;;
20497;SDS011;10407;53.238;10.448;2023-02-28T01:50:28;75.53;;;8.23;;
20497;SDS011;10407;53.238;10.448;2023-02-28T01:52:59;74.80;;;7.30;;
20497;SDS011;10407;53.238;10.448;2023-02-28T01:55:28;76.50;;;7.27;;
20497;SDS011;10407;53.238;10.448;2023-02-28T01:57:57;76.20;;;8.00;;
20497;SDS011;10407;53.238;10.448;2023-02-28T02:00:27;79.50;;;8.13;;
20497;SDS011;10407;53.238;10.448;2023-02-28T02:02:57;83.03;;;8.37;;
20497;SDS011;10407;53.238;10.448;2023-02-28T02:05:28;76.10;;;7.57;;
20497;SDS011;10407;53.238;10.448;2023-02-28T02:07:58;76.60;;;7.20;;
20497;SDS011;10407;53.238;10.448;2023-02-28T02:10:32;77.37;;;8.03;;
20497;SDS011;10407;53.238;10.448;2023-02-28T02:18:46;79.00;;;7.70;;
20497;SDS011;10407;53.238;10.448;2023-02-28T02:21:18;77.00;;;8.47;;
20497;SDS011;10407;53.238;10.448;2023-02-28T02:26:50;77.13;;;8.67;;
20497;SDS011;10407;53.238;10.448;2023-02-28T02:35:05;76.20;;;7.63;;
20497;SDS011;10407;53.238;10.448;2023-02-28T02:40:23;76.47;;;8.40;;
20497;SDS011;10407;53.238;10.448;2023-02-28T02:42:50;76.27;;;7.90;;
20497;SDS011;10407;53.238;10.448;2023-02-28T02:45:35;77.27;;;7.20;;
20497;SDS011;10407;53.238;10.448;2023-02-28T02:48:11;75.67;;;8.20;;
20497;SDS011;10407;53.238;10.448;2023-02-28T02:50:49;77.72;;;7.35;;
20497;SDS011;10407;53.238;10.448;2023-02-28T02:53:15;78.20;;;9.37;;
20497;SDS011;10407;53.238;10.448;2023-02-28T02:55:46;76.00;;;6.90;;
20497;SDS011;10407;53.238;10.448;2023-02-28T02:58:17;74.80;;;7.23;;
20497;SDS011;10407;53.238;10.448;2023-02-28T03:00:49;75.10;;;6.73;;
20497;SDS011;10407;53.238;10.448;2023-02-28T03:03:19;80.40;;;8.27;;
20497;SDS011;10407;53.238;10.448;2023-02-28T03:05:50;75.07;;;6.47;;
20497;SDS011;10407;53.238;10.448;2023-02-28T03:08:17;76.47;;;8.60;;
20497;SDS011;10407;53.238;10.448;2023-02-28T03:10:46;75.20;;;7.83;;
20497;SDS011;10407;53.238;10.448;2023-02-28T03:16:14;74.90;;;7.53;;
20497;SDS011;10407;53.238;10.448;2023-02-28T03:19:03;80.43;;;8.33;;
20497;SDS011;10407;53.238;10.448;2023-02-28T03:21:43;75.30;;;7.37;;
20497;SDS011;10407;53.238;10.448;2023-02-28T03:24:39;77.17;;;7.73;;
20497;SDS011;10407;53.238;10.448;2023-02-28T03:27:27;80.60;;;9.07;;
20497;SDS011;10407;53.238;10.448;2023-02-28T03:30:00;77.17;;;7.90;;
20497;SDS011;10407;53.238;10.448;2023-02-28T03:32:30;76.23;;;7.40;;
20497;SDS011;10407;53.238;10.448;2023-02-28T03:35:16;75.70;;;7.00;;
20497;SDS011;10407;53.238;10.448;2023-02-28T03:37:46;75.27;;;8.77;;
20497;SDS011;10407;53.238;10.448;2023-02-28T03:40:20;75.30;;;7.37;;
20497;SDS011;10407;53.238;10.448;2023-02-28T03:42:50;76.70;;;7.10;;
20497;SDS011;10407;53.238;10.448;2023-02-28T03:45:21;76.50;;;8.97;;
20497;SDS011;10407;53.238;10.448;2023-02-28T03:50:26;79.20;;;8.93;;
20497;SDS011;10407;53.238;10.448;2023-02-28T03:52:57;76.92;;;8.88;;
20497;SDS011;10407;53.238;10.448;2023-02-28T03:55:37;81.00;;;8.68;;
20497;SDS011;10407;53.238;10.448;2023-02-28T03:58:12;77.60;;;7.97;;
20497;SDS011;10407;53.238;10.448;2023-02-28T04:00:45;76.47;;;8.17;;
20497;SDS011;10407;53.238;10.448;2023-02-28T04:03:14;76.50;;;8.03;;
20497;SDS011;10407;53.238;10.448;2023-02-28T04:05:54;76.75;;;7.75;;
20497;SDS011;10407;53.238;10.448;2023-02-28T04:08:23;76.25;;;7.70;;
20497;SDS011;10407;53.238;10.448;2023-02-28T04:10:56;76.77;;;8.63;;
20497;SDS011;10407;53.238;10.448;2023-02-28T04:16:09;75.65;;;8.00;;
20497;SDS011;10407;53.238;10.448;2023-02-28T04:18:38;76.02;;;8.90;;
20497;SDS011;10407;53.238;10.448;2023-02-28T04:21:06;76.12;;;8.15;;
20497;SDS011;10407;53.238;10.448;2023-02-28T04:23:34;76.17;;;9.00;;
20497;SDS011;10407;53.238;10.448;2023-02-28T04:26:01;78.52;;;8.40;;
20497;SDS011;10407;53.238;10.448;2023-02-28T04:28:29;77.70;;;8.15;;
20497;SDS011;10407;53.238;10.448;2023-02-28T04:30:57;75.60;;;8.17;;
20497;SDS011;10407;53.238;10.448;2023-02-28T04:33:27;76.90;;;8.53;;
20497;SDS011;10407;53.238;10.448;2023-02-28T04:38:45;75.70;;;8.23;;
20497;SDS011;10407;53.238;10.448;2023-02-28T04:41:13;75.92;;;8.10;;
20497;SDS011;10407;53.238;10.448;2023-02-28T04:43:40;75.00;;;6.90;;
20497;SDS011;10407;53.238;10.448;2023-02-28T04:46:08;80.45;;;8.60;;
20497;SDS011;10407;53.238;10.448;2023-02-28T04:48:37;76.03;;;7.50;;
20497;SDS011;10407;53.238;10.448;2023-02-28T04:51:06;77.08;;;8.33;;
20497;SDS011;10407;53.238;10.448;2023-02-28T04:53:36;76.50;;;7.13;;
20497;SDS011;10407;53.238;10.448;2023-02-28T04:56:06;74.15;;;7.67;;
20497;SDS011;10407;53.238;10.448;2023-02-28T04:58:35;75.27;;;7.53;;
20497;SDS011;10407;53.238;10.448;2023-02-28T05:01:04;80.83;;;7.85;;
20497;SDS011;10407;53.238;10.448;2023-02-28T05:03:37;81.93;;;9.10;;
20497;SDS011;10407;53.238;10.448;2023-02-28T05:06:08;77.55;;;8.50;;
20497;SDS011;10407;53.238;10.448;2023-02-28T05:08:37;76.05;;;9.10;;
20497;SDS011;10407;53.238;10.448;2023-02-28T05:11:06;78.50;;;8.68;;
20497;SDS011;10407;53.238;10.448;2023-02-28T05:13:35;77.65;;;8.88;;
20497;SDS011;10407;53.238;10.448;2023-02-28T05:16:03;76.97;;;8.65;;
20497;SDS011;10407;53.238;10.448;2023-02-28T05:18:30;80.80;;;7.80;;
20497;SDS011;10407;53.238;10.448;2023-02-28T05:20:58;77.97;;;7.37;;
20497;SDS011;10407;53.238;10.448;2023-02-28T05:23:29;76.77;;;9.40;;
20497;SDS011;10407;53.238;10.448;2023-02-28T05:25:57;76.10;;;8.73;;
20497;SDS011;10407;53.238;10.448;2023-02-28T05:28:24;77.90;;;8.43;;
20497;SDS011;10407;53.238;10.448;2023-02-28T05:30:52;78.65;;;10.03;;
20497;SDS011;10407;53.238;10.448;2023-02-28T05:33:19;78.20;;;9.40;;
20497;SDS011;10407;53.238;10.448;2023-02-28T05:35:47;74.47;;;7.35;;
20497;SDS011;10407;53.238;10.448;2023-02-28T05:38:14;77.25;;;9.63;;
20497;SDS011;10407;53.238;10.448;2023-02-28T05:40:43;80.62;;;8.53;;
20497;SDS011;10407;53.238;10.448;2023-02-28T05:43:10;76.12;;;7.58;;
20497;SDS011;10407;53.238;10.448;2023-02-28T05:45:38;75.55;;;8.48;;
20497;SDS011;10407;53.238;10.448;2023-02-28T05:48:06;76.50;;;8.37;;
20497;SDS011;10407;53.238;10.448;2023-02-28T05:50:34;74.20;;;6.80;;
20497;SDS011;10407;53.238;10.448;2023-02-28T05:53:01;79.40;;;8.63;;
20497;SDS011;10407;53.238;10.448;2023-02-28T05:55:29;77.58;;;8.25;;
20497;SDS011;10407;53.238;10.448;2023-02-28T05:57:57;77.50;;;8.37;;
20497;SDS011;10407;53.238;10.448;2023-02-28T06:00:24;76.62;;;8.03;;
20497;SDS011;10407;53.238;10.448;2023-02-28T06:02:52;77.75;;;9.48;;
20497;SDS011;10407;53.238;10.448;2023-02-28T06:05:21;77.97;;;8.45;;
20497;SDS011;10407;53.238;10.448;2023-02-28T06:07:49;88.03;;;8.25;;
20497;SDS011;10407;53.238;10.448;2023-02-28T06:10:16;76.53;;;8.23;;
20497;SDS011;10407;53.238;10.448;2023-02-28T06:12:45;77.40;;;8.95;;
20497;SDS011;10407;53.238;10.448;2023-02-28T06:15:13;77.62;;;9.73;;
20497;SDS011;10407;53.238;10.448;2023-02-28T06:17:42;79.67;;;9.20;;
20497;SDS011;10407;53.238;10.448;2023-02-28T06:20:10;73.67;;;7.60;;
20497;SDS011;10407;53.238;10.448;2023-02-28T06:22:39;76.33;;;9.08;;
20497;SDS011;10407;53.238;10.448;2023-02-28T06:25:07;77.50;;;7.50;;
20497;SDS011;10407;53.238;10.448;2023-02-28T06:27:36;79.17;;;8.43;;
20497;SDS011;10407;53.238;10.448;2023-02-28T06:30:04;75.37;;;7.85;;
20497;SDS011;10407;53.238;10.448;2023-02-28T06:32:32;76.60;;;8.73;;
20497;SDS011;10407;53.238;10.448;2023-02-28T06:35:00;77.32;;;8.03;;
20497;SDS011;10407;53.238;10.448;2023-02-28T06:37:27;81.30;;;9.30;;
20497;SDS011;10407;53.238;10.448;2023-02-28T06:39:55;83.87;;;9.37;;
20497;SDS011;10407;53.238;10.448;2023-02-28T06:42:23;77.37;;;8.48;;
20497;SDS011;10407;53.238;10.448;2023-02-28T06:44:53;77.80;;;8.33;;
20497;SDS011;10407;53.238;10.448;2023-02-28T06:47:22;77.20;;;8.58;;
20497;SDS011;10407;53.238;10.448;2023-02-28T06:49:50;77.23;;;8.87;;
20497;SDS011;10407;53.238;10.448;2023-02-28T06:52:18;79.63;;;9.70;;
20497;SDS011;10407;53.238;10.448;2023-02-28T06:54:45;76.53;;;9.60;;
20497;SDS011;10407;53.238;10.448;2023-02-28T06:57:13;76.00;;;8.57;;
20497;SDS011;10407;53.238;10.448;2023-02-28T06:59:40;79.60;;;8.83;;
20497;SDS011;10407;53.238;10.448;2023-02-28T07:02:08;75.90;;;8.50;;
20497;SDS011;10407;53.238;10.448;2023-02-28T07:04:35;82.40;;;8.13;;
20497;SDS011;10407;53.238;10.448;2023-02-28T07:07:04;76.17;;;7.80;;
20497;SDS011;10407;53.238;10.448;2023-02-28T07:12:19;77.30;;;7.93;;
20497;SDS011;10407;53.238;10.448;2023-02-28T07:14:47;79.80;;;8.80;;
20497;SDS011;10407;53.238;10.448;2023-02-28T07:17:14;77.10;;;7.73;;
20497;SDS011;10407;53.238;10.448;2023-02-28T07:19:42;77.07;;;7.63;;
20497;SDS011;10407;53.238;10.448;2023-02-28T07:22:09;78.40;;;8.50;;
20497;SDS011;10407;53.238;10.448;2023-02-28T07:24:37;80.57;;;7.00;;
20497;SDS011;10407;53.238;10.448;2023-02-28T07:27:04;77.77;;;7.10;;
20497;SDS011;10407;53.238;10.448;2023-02-28T07:29:32;79.93;;;8.30;;
20497;SDS011;10407;53.238;10.448;2023-02-28T07:31:59;77.27;;;9.37;;
20497;SDS011;10407;53.238;10.448;2023-02-28T07:34:27;81.73;;;8.37;;
20497;SDS011;10407;53.238;10.448;2023-02-28T07:36:54;77.07;;;8.07;;
20497;SDS011;10407;53.238;10.448;2023-02-28T07:39:22;76.37;;;7.60;;
20497;SDS011;10407;53.238;10.448;2023-02-28T07:41:50;77.57;;;7.20;;
20497;SDS011;10407;53.238;10.448;2023-02-28T07:44:17;78.07;;;8.47;;
20497;SDS011;10407;53.238;10.448;2023-02-28T07:46:45;77.17;;;7.33;;
20497;SDS011;10407;53.238;10.448;2023-02-28T07:49:12;78.97;;;8.73;;
20497;SDS011;10407;53.238;10.448;2023-02-28T07:51:40;80.23;;;9.20;;
20497;SDS011;10407;53.238;10.448;2023-02-28T07:54:07;76.83;;;7.50;;
20497;SDS011;10407;53.238;10.448;2023-02-28T07:56:35;82.13;;;8.07;;
20497;SDS011;10407;53.238;10.448;2023-02-28T07:59:02;78.17;;;9.60;;
20497;SDS011;10407;53.238;10.448;2023-02-28T08:01:30;79.43;;;10.20;;
20497;SDS011;10407;53.238;10.448;2023-02-28T08:03:57;76.77;;;9.03;;
20497;SDS011;10407;53.238;10.448;2023-02-28T08:06:26;81.00;;;8.43;;
20497;SDS011;10407;53.238;10.448;2023-02-28T08:08:53;79.20;;;10.10;;
20497;SDS011;10407;53.238;10.448;2023-02-28T08:11:22;78.30;;;8.10;;
20497;SDS011;10407;53.238;10.448;2023-02-28T08:13:49;77.93;;;9.30;;
20497;SDS011;10407;53.238;10.448;2023-02-28T08:16:17;77.27;;;9.03;;
20497;SDS011;10407;53.238;10.448;2023-02-28T08:18:46;77.10;;;9.37;;
20497;SDS011;10407;53.238;10.448;2023-02-28T08:21:15;82.77;;;9.40;;
20497;SDS011;10407;53.238;10.448;2023-02-28T08:23:43;80.17;;;9.07;;
20497;SDS011;10407;53.238;10.448;2023-02-28T08:26:13;79.23;;;9.57;;
20497;SDS011;10407;53.238;10.448;2023-02-28T08:28:41;80.50;;;8.60;;
20497;SDS011;10407;53.238;10.448;2023-02-28T08:31:09;80.30;;;8.43;;
20497;SDS011;10407;53.238;10.448;2023-02-28T08:33:39;80.60;;;8.20;;
20497;SDS011;10407;53.238;10.448;2023-02-28T08:36:07;78.73;;;8.10;;
20497;SDS011;10407;53.238;10.448;2023-02-28T08:38:35;77.37;;;8.20;;
20497;SDS011;10407;53.238;10.448;2023-02-28T08:41:05;76.70;;;7.77;;
20497;SDS011;10407;53.238;10.448;2023-02-28T08:43:35;78.97;;;8.70;;
20497;SDS011;10407;53.238;10.448;2023-02-28T08:46:03;77.50;;;7.57;;
20497;SDS011;10407;53.238;10.448;2023-02-28T08:48:32;76.67;;;7.33;;
20497;SDS011;10407;53.238;10.448;2023-02-28T08:51:04;76.07;;;7.80;;
20497;SDS011;10407;53.238;10.448;2023-02-28T08:53:38;76.90;;;7.97;;
20497;SDS011;10407;53.238;10.448;2023-02-28T08:56:07;77.90;;;8.87;;
20497;SDS011;10407;53.238;10.448;2023-02-28T08:58:39;78.30;;;8.47;;
20497;SDS011;10407;53.238;10.448;2023-02-28T09:01:11;85.47;;;8.93;;
20497;SDS011;10407;53.238;10.448;2023-02-28T09:03:47;81.17;;;9.90;;
20497;SDS011;10407;53.238;10.448;2023-02-28T09:06:16;80.83;;;9.53;;
20497;SDS011;10407;53.238;10.448;2023-02-28T09:08:44;80.17;;;9.90;;
20497;SDS011;10407;53.238;10.448;2023-02-28T09:11:12;82.83;;;8.23;;
20497;SDS011;10407;53.238;10.448;2023-02-28T09:13:40;86.00;;;9.30;;
20497;SDS011;10407;53.238;10.448;2023-02-28T09:16:10;81.20;;;9.80;;
20497;SDS011;10407;53.238;10.448;2023-02-28T09:18:39;78.10;;;8.87;;
20497;SDS011;10407;53.238;10.448;2023-02-28T09:21:08;77.93;;;8.27;;
20497;SDS011;10407;53.238;10.448;2023-02-28T09:23:40;75.67;;;7.33;;
20497;SDS011;10407;53.238;10.448;2023-02-28T09:26:13;79.07;;;8.80;;
20497;SDS011;10407;53.238;10.448;2023-02-28T09:28:42;77.97;;;7.77;;
20497;SDS011;10407;53.238;10.448;2023-02-28T09:31:17;81.97;;;8.00;;
20497;SDS011;10407;53.238;10.448;2023-02-28T09:33:40;77.57;;;7.37;;
20497;SDS011;10407;53.238;10.448;2023-02-28T09:36:08;77.53;;;7.47;;
20497;SDS011;10407;53.238;10.448;2023-02-28T09:38:36;76.40;;;6.60;;
20497;SDS011;10407;53.238;10.448;2023-02-28T09:41:08;75.07;;;6.00;;
20497;SDS011;10407;53.238;10.448;2023-02-28T09:43:55;75.47;;;6.93;;
20497;SDS011;10407;53.238;10.448;2023-02-28T09:46:32;75.77;;;6.13;;
20497;SDS011;10407;53.238;10.448;2023-02-28T09:49:07;75.60;;;6.30;;
20497;SDS011;10407;53.238;10.448;2023-02-28T09:54:22;80.57;;;6.33;;
20497;SDS011;10407;53.238;10.448;2023-02-28T09:56:57;75.10;;;5.93;;
20497;SDS011;10407;53.238;10.448;2023-02-28T09:59:43;74.10;;;5.63;;
20497;SDS011;10407;53.238;10.448;2023-02-28T10:05:33;74.70;;;5.60;;
20497;SDS011;10407;53.238;10.448;2023-02-28T10:08:26;77.90;;;5.83;;
20497;SDS011;10407;53.238;10.448;2023-02-28T10:10:57;74.90;;;5.30;;
20497;SDS011;10407;53.238;10.448;2023-02-28T10:19:11;77.20;;;7.10;;
20497;SDS011;10407;53.238;10.448;2023-02-28T10:22:33;75.77;;;6.60;;
20497;SDS011;10407;53.238;10.448;2023-02-28T10:24:21;76.57;;;6.30;;
20497;SDS011;10407;53.238;10.448;2023-02-28T10:26:50;74.23;;;5.87;;
20497;SDS011;10407;53.238;10.448;2023-02-28T10:29:21;75.70;;;5.67;;
20497;SDS011;10407;53.238;10.448;2023-02-28T10:31:49;74.70;;;5.00;;
20497;SDS011;10407;53.238;10.448;2023-02-28T10:34:16;79.03;;;7.37;;
20497;SDS011;10407;53.238;10.448;2023-02-28T10:36:44;77.47;;;6.87;;
20497;SDS011;10407;53.238;10.448;2023-02-28T10:42:02;91.80;;;6.70;;
20497;SDS011;10407;53.238;10.448;2023-02-28T10:44:30;80.23;;;7.10;;
20497;SDS011;10407;53.238;10.448;2023-02-28T10:46:58;78.50;;;7.00;;
20497;SDS011;10407;53.238;10.448;2023-02-28T10:49:26;75.67;;;5.93;;
20497;SDS011;10407;53.238;10.448;2023-02-28T10:51:56;76.63;;;7.10;;
20497;SDS011;10407;53.238;10.448;2023-02-28T10:54:32;75.77;;;6.17;;
20497;SDS011;10407;53.238;10.448;2023-02-28T10:57:07;78.80;;;6.53;;
20497;SDS011;10407;53.238;10.448;2023-02-28T10:59:35;74.17;;;5.03;;
20497;SDS011;10407;53.238;10.448;2023-02-28T11:02:10;73.33;;;5.47;;
20497;SDS011;10407;53.238;10.448;2023-02-28T11:04:36;74.00;;;5.57;;
20497;SDS011;10407;53.238;10.448;2023-02-28T11:07:10;72.57;;;5.60;;
20497;SDS011;10407;53.238;10.448;2023-02-28T11:09:39;72.03;;;4.33;;
20497;SDS011;10407;53.238;10.448;2023-02-28T11:15:29;73.50;;;4.60;;
20497;SDS011;10407;53.238;10.448;2023-02-28T11:18:00;73.33;;;4.90;;
20497;SDS011;10407;53.238;10.448;2023-02-28T11:20:31;75.60;;;6.30;;
20497;SDS011;10407;53.238;10.448;2023-02-28T11:23:01;73.70;;;5.00;;
20497;SDS011;10407;53.238;10.448;2023-02-28T11:25:32;74.17;;;5.60;;
20497;SDS011;10407;53.238;10.448;2023-02-28T11:28:04;72.00;;;5.20;;
20497;SDS011;10407;53.238;10.448;2023-02-28T11:35:50;72.27;;;4.73;;
20497;SDS011;10407;53.238;10.448;2023-02-28T11:38:19;72.80;;;5.50;;
20497;SDS011;10407;53.238;10.448;2023-02-28T11:40:48;73.33;;;4.50;;
20497;SDS011;10407;53.238;10.448;2023-02-28T11:46:20;74.17;;;5.37;;
20497;SDS011;10407;53.238;10.448;2023-02-28T11:51:34;73.30;;;4.80;;
20497;SDS011;10407;53.238;10.448;2023-02-28T11:56:54;72.73;;;5.00;;
20497;SDS011;10407;53.238;10.448;2023-02-28T12:02:22;73.07;;;5.20;;
20497;SDS011;10407;53.238;10.448;2023-02-28T12:04:58;73.70;;;5.00;;
20497;SDS011;10407;53.238;10.448;2023-02-28T12:10:21;74.27;;;5.10;;
20497;SDS011;10407;53.238;10.448;2023-02-28T12:16:00;73.40;;;5.53;;
20497;SDS011;10407;53.238;10.448;2023-02-28T12:18:32;72.40;;;4.67;;
20497;SDS011;10407;53.238;10.448;2023-02-28T12:23:50;72.33;;;4.83;;
20497;SDS011;10407;53.238;10.448;2023-02-28T12:26:26;76.67;;;6.30;;
20497;SDS011;10407;53.238;10.448;2023-02-28T12:29:01;72.27;;;4.53;;
20497;SDS011;10407;53.238;10.448;2023-02-28T12:31:49;73.10;;;5.47;;
20497;SDS011;10407;53.238;10.448;2023-02-28T12:34:19;73.87;;;6.00;;
20497;SDS011;10407;53.238;10.448;2023-02-28T12:36:48;72.37;;;5.30;;
20497;SDS011;10407;53.238;10.448;2023-02-28T12:39:31;74.70;;;5.80;;
20497;SDS011;10407;53.238;10.448;2023-02-28T12:42:12;75.03;;;5.83;;
20497;SDS011;10407;53.238;10.448;2023-02-28T12:44:35;78.70;;;5.13;;
20497;SDS011;10407;53.238;10.448;2023-02-28T12:47:09;74.33;;;6.00;;
20497;SDS011;10407;53.238;10.448;2023-02-28T12:49:43;73.57;;;6.17;;
20497;SDS011;10407;53.238;10.448;2023-02-28T12:52:19;72.00;;;4.50;;
20497;SDS011;10407;53.238;10.448;2023-02-28T12:54:52;72.40;;;4.50;;
20497;SDS011;10407;53.238;10.448;2023-02-28T12:57:30;75.00;;;5.03;;
20497;SDS011;10407;53.238;10.448;2023-02-28T13:00:04;72.70;;;4.67;;
20497;SDS011;10407;53.238;10.448;2023-02-28T13:11:01;74.30;;;6.10;;
20497;SDS011;10407;53.238;10.448;2023-02-28T13:13:29;74.10;;;6.10;;
20497;SDS011;10407;53.238;10.448;2023-02-28T13:15:59;73.87;;;5.43;;
20497;SDS011;10407;53.238;10.448;2023-02-28T13:18:35;77.97;;;5.07;;
20497;SDS011;10407;53.238;10.448;2023-02-28T13:23:57;72.80;;;5.13;;
20497;SDS011;10407;53.238;10.448;2023-02-28T13:34:37;74.27;;;5.80;;
20497;SDS011;10407;53.238;10.448;2023-02-28T13:39:54;73.60;;;4.97;;
20497;SDS011;10407;53.238;10.448;2023-02-28T13:42:33;74.87;;;5.10;;
20497;SDS011;10407;53.238;10.448;2023-02-28T13:47:41;74.60;;;5.33;;
20497;SDS011;10407;53.238;10.448;2023-02-28T13:50:20;76.20;;;4.10;;
20497;SDS011;10407;53.238;10.448;2023-02-28T14:01:12;72.57;;;4.67;;
20497;SDS011;10407;53.238;10.448;2023-02-28T14:06:38;72.40;;;5.20;;
20497;SDS011;10407;53.238;10.448;2023-02-28T14:11:53;72.73;;;5.63;;
20497;SDS011;10407;53.238;10.448;2023-02-28T14:14:55;73.13;;;5.57;;
20497;SDS011;10407;53.238;10.448;2023-02-28T14:17:04;74.33;;;5.37;;
20497;SDS011;10407;53.238;10.448;2023-02-28T14:19:36;73.97;;;5.33;;
20497;SDS011;10407;53.238;10.448;2023-02-28T14:27:24;73.13;;;4.50;;
20497;SDS011;10407;53.238;10.448;2023-02-28T14:30:04;73.50;;;5.87;;
20497;SDS011;10407;53.238;10.448;2023-02-28T14:37:53;74.00;;;5.37;;
20497;SDS011;10407;53.238;10.448;2023-02-28T14:40:25;72.47;;;4.60;;
20497;SDS011;10407;53.238;10.448;2023-02-28T14:43:02;72.77;;;6.30;;
20497;SDS011;10407;53.238;10.448;2023-02-28T14:45:32;74.63;;;5.33;;
20497;SDS011;10407;53.238;10.448;2023-02-28T14:48:03;75.33;;;5.57;;
20497;SDS011;10407;53.238;10.448;2023-02-28T14:50:34;72.97;;;4.97;;
20497;SDS011;10407;53.238;10.448;2023-02-28T14:53:03;72.57;;;4.50;;
20497;SDS011;10407;53.238;10.448;2023-02-28T14:55:34;72.20;;;4.57;;
20497;SDS011;10407;53.238;10.448;2023-02-28T14:58:04;73.67;;;4.73;;
20497;SDS011;10407;53.238;10.448;2023-02-28T15:00:33;73.70;;;4.70;;
20497;SDS011;10407;53.238;10.448;2023-02-28T15:03:46;74.10;;;4.63;;
20497;SDS011;10407;53.238;10.448;2023-02-28T15:05:53;72.57;;;4.63;;
20497;SDS011;10407;53.238;10.448;2023-02-28T15:08:21;74.83;;;5.33;;
20497;SDS011;10407;53.238;10.448;2023-02-28T15:10:56;74.07;;;5.07;;
20497;SDS011;10407;53.238;10.448;2023-02-28T15:13:30;74.20;;;5.63;;
20497;SDS011;10407;53.238;10.448;2023-02-28T15:16:03;73.10;;;6.33;;
20497;SDS011;10407;53.238;10.448;2023-02-28T15:21:13;73.30;;;5.30;;
20497;SDS011;10407;53.238;10.448;2023-02-28T15:23:44;73.17;;;4.33;;
20497;SDS011;10407;53.238;10.448;2023-02-28T15:26:15;72.50;;;5.47;;
20497;SDS011;10407;53.238;10.448;2023-02-28T15:28:44;77.00;;;4.57;;
20497;SDS011;10407;53.238;10.448;2023-02-28T15:33:56;72.93;;;5.03;;
20497;SDS011;10407;53.238;10.448;2023-02-28T15:36:26;72.77;;;5.07;;
20497;SDS011;10407;53.238;10.448;2023-02-28T15:38:55;72.47;;;4.70;;
20497;SDS011;10407;53.238;10.448;2023-02-28T15:41:27;73.80;;;5.27;;
20497;SDS011;10407;53.238;10.448;2023-02-28T15:44:16;72.57;;;4.13;;
20497;SDS011;10407;53.238;10.448;2023-02-28T15:46:53;72.77;;;4.17;;
20497;SDS011;10407;53.238;10.448;2023-02-28T15:49:22;73.30;;;5.07;;
20497;SDS011;10407;53.238;10.448;2023-02-28T15:51:50;73.57;;;4.93;;
20497;SDS011;10407;53.238;10.448;2023-02-28T15:54:26;73.07;;;4.50;;
20497;SDS011;10407;53.238;10.448;2023-02-28T15:57:03;73.40;;;4.67;;
20497;SDS011;10407;53.238;10.448;2023-02-28T15:59:27;72.80;;;5.80;;
20497;SDS011;10407;53.238;10.448;2023-02-28T16:07:37;73.17;;;5.03;;
20497;SDS011;10407;53.238;10.448;2023-02-28T16:10:08;72.70;;;4.53;;
20497;SDS011;10407;53.238;10.448;2023-02-28T16:12:38;71.70;;;4.30;;
20497;SDS011;10407;53.238;10.448;2023-02-28T16:15:18;73.40;;;5.73;;
20497;SDS011;10407;53.238;10.448;2023-02-28T16:17:38;72.40;;;4.90;;
20497;SDS011;10407;53.238;10.448;2023-02-28T16:20:12;72.73;;;4.67;;
20497;SDS011;10407;53.238;10.448;2023-02-28T16:22:42;72.47;;;5.20;;
20497;SDS011;10407;53.238;10.448;2023-02-28T16:25:14;74.60;;;4.90;;
20497;SDS011;10407;53.238;10.448;2023-02-28T16:27:43;77.30;;;6.77;;
20497;SDS011;10407;53.238;10.448;2023-02-28T16:30:21;72.07;;;4.57;;
20497;SDS011;10407;53.238;10.448;2023-02-28T16:32:51;72.80;;;4.30;;
20497;SDS011;10407;53.238;10.448;2023-02-28T16:35:19;74.50;;;5.80;;
20497;SDS011;10407;53.238;10.448;2023-02-28T16:37:47;76.57;;;4.93;;
20497;SDS011;10407;53.238;10.448;2023-02-28T16:40:21;76.23;;;5.17;;
20497;SDS011;10407;53.238;10.448;2023-02-28T16:42:51;74.80;;;4.70;;
20497;SDS011;10407;53.238;10.448;2023-02-28T16:45:22;74.57;;;4.97;;
20497;SDS011;10407;53.238;10.448;2023-02-28T16:47:51;74.73;;;5.57;;
20497;SDS011;10407;53.238;10.448;2023-02-28T16:50:20;72.57;;;4.70;;
20497;SDS011;10407;53.238;10.448;2023-02-28T16:52:53;76.40;;;6.60;;
20497;SDS011;10407;53.238;10.448;2023-02-28T16:55:22;75.80;;;6.13;;